Terminal Aerodrome Forecast
Issued by NWS

Home | Current Version | Previous Version | Text Only | Print | Product List | Glossary On
Versions: 1 2 3 4 5 6 7 8 9 10 11 12 13
333
FTUS42 KILM 112333
TAFCRE
TAF
KCRE 112333Z 1200/1224 VRB05KT P6SM SCT250
     FM120700 05005KT P6SM OVC050
     FM121200 06008KT 6SM -FZRA BR SCT010 OVC025
     FM121700 03007KT 4SM -RA BR SCT007 OVC010
     FM122200 33004KT 4SM BR VCSH BKN007=

USA.gov is the U.S. government's official web portal to all federal, state and local government web resources and services.